Time;durP1;ratioP1;P1;durP2;ratioP2;P2;SDS_P1;SDS_P2;PMS_P1;PMS_P2;Temp;Humidity;BMP_temperature;BMP_pressure;BME280_temperature;BME280_humidity;BME280_pressure;Samples;Min_cycle;Max_cycle;Signal;HPM_P1;HPM_P2
2022/05/29 00:02:10;;;;;;;4.68;1.88;;;9.10;99.90;;;;;;5031474;28;20033;-61
2022/05/29 00:04:39;;;;;;;5.78;1.85;;;9.00;99.90;;;;;;5031326;28;20035;-61
2022/05/29 00:07:06;;;;;;;3.08;1.30;;;9.00;99.90;;;;;;5032398;28;20025;-61
2022/05/29 00:09:44;;;;;;;3.13;1.20;;;9.00;99.90;;;;;;5031348;28;20017;-61
2022/05/29 00:12:11;;;;;;;5.80;2.45;;;9.00;99.90;;;;;;5031302;28;20025;-61
2022/05/29 00:14:38;;;;;;;2.97;1.33;;;8.90;99.90;;;;;;5031195;28;20036;-61
2022/05/29 00:17:04;;;;;;;5.97;1.30;;;8.90;99.90;;;;;;5032858;28;20053;-61
2022/05/29 00:19:30;;;;;;;5.82;2.22;;;8.90;99.90;;;;;;5032613;28;20026;-61
2022/05/29 00:21:56;;;;;;;4.30;1.70;;;8.80;99.90;;;;;;5031599;28;20028;-61
2022/05/29 00:24:22;;;;;;;6.80;1.70;;;8.80;99.90;;;;;;5032436;28;20025;-61
2022/05/29 00:26:48;;;;;;;4.60;1.63;;;8.80;99.90;;;;;;5031960;28;20032;-61
2022/05/29 00:29:14;;;;;;;5.80;1.60;;;8.80;99.90;;;;;;5032548;28;20026;-61
2022/05/29 00:31:41;;;;;;;6.25;1.73;;;8.80;99.90;;;;;;5031653;28;20116;-61
2022/05/29 00:34:07;;;;;;;9.98;1.58;;;8.70;99.90;;;;;;5034512;28;20484;-61
2022/05/29 00:36:39;;;;;;;4.50;1.42;;;8.60;99.90;;;;;;5036401;28;20035;-61
2022/05/29 00:39:08;;;;;;;4.07;1.35;;;8.50;99.90;;;;;;5036370;28;20522;-61
2022/05/29 00:41:35;;;;;;;3.35;1.80;;;8.60;99.90;;;;;;5036294;28;20029;-61
2022/05/29 00:44:13;;;;;;;4.43;1.85;;;8.60;99.90;;;;;;5036343;28;20080;-60
2022/05/29 00:47:09;;;;;;;4.57;1.60;;;8.60;99.90;;;;;;5035828;28;20095;-61
2022/05/29 00:49:36;;;;;;;2.85;1.77;;;8.60;99.90;;;;;;5021927;28;20431;-62
2022/05/29 00:52:11;;;;;;;3.47;1.48;;;8.50;99.90;;;;;;5036227;28;20360;-61
2022/05/29 00:54:45;;;;;;;2.83;1.30;;;8.50;99.90;;;;;;5034953;28;20029;-61
2022/05/29 00:57:14;;;;;;;3.17;1.23;;;8.40;99.90;;;;;;5036019;28;20052;-61
2022/05/29 00:59:41;;;;;;;1.67;1.27;;;8.40;99.90;;;;;;5034857;28;20091;-61
2022/05/29 01:02:07;;;;;;;3.65;1.42;;;8.40;99.90;;;;;;5036132;28;20049;-61
2022/05/29 01:04:38;;;;;;;5.20;1.38;;;8.40;99.90;;;;;;5035725;28;20079;-61
2022/05/29 01:07:06;;;;;;;5.33;1.97;;;8.40;99.90;;;;;;5035775;28;20018;-60
2022/05/29 01:09:37;;;;;;;8.32;1.70;;;8.40;99.90;;;;;;5034540;28;20025;-61
2022/05/29 01:12:17;;;;;;;4.03;1.80;;;8.30;99.90;;;;;;5034523;28;20384;-61
2022/05/29 01:15:04;;;;;;;4.03;1.35;;;8.30;99.90;;;;;;5035771;28;20060;-61
2022/05/29 01:17:41;;;;;;;6.00;1.65;;;8.30;99.90;;;;;;5035808;28;20025;-61
2022/05/29 01:20:18;;;;;;;4.65;1.30;;;8.30;99.90;;;;;;5035841;28;20022;-61
2022/05/29 01:22:55;;;;;;;3.38;1.20;;;8.30;99.90;;;;;;5035853;28;20022;-61
2022/05/29 01:25:21;;;;;;;6.60;1.35;;;8.40;99.90;;;;;;5034444;28;20021;-61
2022/05/29 01:28:05;;;;;;;3.70;1.60;;;8.30;99.90;;;;;;5034434;28;20025;-61
2022/05/29 01:30:34;;;;;;;4.55;1.30;;;8.30;99.90;;;;;;5034033;28;20029;-61
2022/05/29 01:33:32;;;;;;;2.33;1.50;;;8.20;99.90;;;;;;5035308;28;20476;-60
2022/05/29 01:36:09;;;;;;;4.72;1.40;;;8.10;99.90;;;;;;5035225;28;20407;-61
2022/05/29 01:38:54;;;;;;;5.20;1.13;;;8.10;99.90;;;;;;5034117;28;20085;-61
2022/05/29 01:41:36;;;;;;;7.53;1.63;;;8.00;99.90;;;;;;5035211;28;20026;-61
2022/05/29 01:44:21;;;;;;;3.05;1.65;;;7.90;99.90;;;;;;5034709;28;20037;-61
2022/05/29 01:46:54;;;;;;;3.40;0.93;;;7.90;99.90;;;;;;5033361;28;20094;-60
2022/05/29 01:49:29;;;;;;;6.68;1.65;;;7.80;99.90;;;;;;5033727;28;20022;-58
2022/05/29 01:52:07;;;;;;;3.95;1.30;;;7.80;99.90;;;;;;5033735;28;20022;-58
2022/05/29 01:54:38;;;;;;;2.72;1.40;;;7.80;99.90;;;;;;5035090;28;20025;-60
2022/05/29 01:57:36;;;;;;;4.85;1.40;;;7.90;99.90;;;;;;5033616;28;20443;-61
2022/05/29 02:00:10;;;;;;;3.72;1.58;;;7.80;99.90;;;;;;5033412;28;20113;-61
2022/05/29 02:02:43;;;;;;;3.42;1.52;;;7.80;99.90;;;;;;5034790;28;20029;-60
2022/05/29 02:05:15;;;;;;;9.15;1.80;;;7.70;99.90;;;;;;5033276;28;20380;-61
2022/05/29 02:07:48;;;;;;;4.82;1.48;;;7.70;99.90;;;;;;5033391;28;20090;-61
2022/05/29 02:10:37;;;;;;;4.78;1.25;;;7.70;99.90;;;;;;5034647;28;20054;-61
2022/05/29 02:13:23;;;;;;;6.25;1.80;;;7.60;99.90;;;;;;5034298;28;20022;-61
2022/05/29 02:16:04;;;;;;;2.38;1.45;;;7.60;99.90;;;;;;5033173;28;20050;-61
2022/05/29 02:19:19;;;;;;;2.95;1.30;;;7.60;99.90;;;;;;5034502;28;20013;-61
2022/05/29 02:22:05;;;;;;;5.30;1.67;;;7.60;99.90;;;;;;5029491;28;20033;-59
2022/05/29 02:24:41;;;;;;;6.50;1.55;;;7.50;99.90;;;;;;5032946;28;20026;-61
2022/05/29 02:27:21;;;;;;;3.00;1.25;;;7.50;99.90;;;;;;5033138;28;20425;-60
2022/05/29 02:29:46;;;;;;;4.22;1.55;;;7.50;99.90;;;;;;5033032;28;20018;-61
2022/05/29 02:32:29;;;;;;;7.20;1.58;;;7.40;99.90;;;;;;5034685;28;20021;-61
2022/05/29 02:35:19;;;;;;;4.40;1.15;;;7.40;99.90;;;;;;5032677;28;20159;-61
2022/05/29 02:38:00;;;;;;;5.72;1.30;;;7.40;99.90;;;;;;5032881;28;20067;-61
2022/05/29 02:40:49;;;;;;;3.75;1.30;;;7.30;99.90;;;;;;5032842;28;20036;-60
2022/05/29 02:43:22;;;;;;;2.92;1.60;;;7.30;99.90;;;;;;5034044;28;20488;-61
2022/05/29 02:46:01;;;;;;;6.65;1.75;;;7.20;99.90;;;;;;5033625;28;20391;-60
2022/05/29 02:48:40;;;;;;;3.35;1.15;;;7.20;99.90;;;;;;5032693;28;20064;-60
2022/05/29 02:51:20;;;;;;;7.18;1.50;;;7.20;99.90;;;;;;5034127;28;20100;-61
2022/05/29 02:53:47;;;;;;;5.88;1.90;;;7.20;99.90;;;;;;5032484;28;20067;-60
2022/05/29 02:56:13;;;;;;;2.78;1.27;;;7.20;99.90;;;;;;5031966;28;20076;-59
2022/05/29 02:58:42;;;;;;;3.38;1.48;;;7.20;99.90;;;;;;5032544;28;20030;-61
2022/05/29 03:01:26;;;;;;;3.80;1.30;;;7.10;99.90;;;;;;5032639;28;20030;-61
2022/05/29 03:04:10;;;;;;;3.10;1.30;;;7.00;99.90;;;;;;5032254;28;20021;-58
2022/05/29 03:06:54;;;;;;;4.32;1.73;;;6.90;99.90;;;;;;5033824;28;20057;-60
2022/05/29 03:09:42;;;;;;;1.83;1.10;;;6.90;99.90;;;;;;5032067;28;20048;-59
2022/05/29 03:12:25;;;;;;;4.40;1.30;;;7.00;99.90;;;;;;5032152;28;20052;-60
2022/05/29 03:15:12;;;;;;;3.25;1.80;;;7.00;99.90;;;;;;5033196;28;20021;-61
2022/05/29 03:18:07;;;;;;;5.82;1.38;;;6.90;99.90;;;;;;5033384;28;20026;-61
2022/05/29 03:20:47;;;;;;;6.97;1.58;;;6.90;99.90;;;;;;5033256;28;20392;-60
2022/05/29 03:23:21;;;;;;;5.25;1.70;;;6.80;99.90;;;;;;5031970;28;20025;-59
2022/05/29 03:26:00;;;;;;;4.53;1.80;;;6.90;99.90;;;;;;5031833;28;20052;-59
2022/05/29 03:28:58;;;;;;;4.07;1.50;;;6.90;99.90;;;;;;5032992;28;20033;-61
2022/05/29 03:31:27;;;;;;;6.90;1.70;;;6.90;99.90;;;;;;5033025;28;20056;-60
2022/05/29 03:33:53;;;;;;;5.20;1.75;;;6.90;99.90;;;;;;5031727;28;20021;-60
2022/05/29 03:36:19;;;;;;;3.05;1.45;;;6.90;99.90;;;;;;5032439;28;20124;-61
2022/05/29 03:38:47;;;;;;;4.47;1.40;;;6.90;99.90;;;;;;5032943;28;20391;-61
2022/05/29 03:41:17;;;;;;;5.00;1.63;;;6.90;99.90;;;;;;5031679;28;20034;-61
2022/05/29 03:43:43;;;;;;;1.17;1.00;;;6.90;99.90;;;;;;5033078;28;20048;-57
2022/05/29 03:46:08;;;;;;;9.13;1.65;;;6.90;99.90;;;;;;5032796;28;20480;-61
2022/05/29 03:48:34;;;;;;;5.88;1.50;;;6.90;99.90;;;;;;5031502;28;20026;-61
2022/05/29 03:51:07;;;;;;;4.75;1.85;;;7.00;99.90;;;;;;5032796;28;20029;-60
2022/05/29 03:53:32;;;;;;;4.07;1.60;;;7.00;99.90;;;;;;5031453;28;20472;-61
2022/05/29 03:55:58;;;;;;;5.03;1.40;;;7.20;99.90;;;;;;5031410;28;20109;-61
2022/05/29 03:58:24;;;;;;;4.20;1.60;;;7.20;99.90;;;;;;5033040;28;20087;-61
2022/05/29 04:00:49;;;;;;;5.97;2.00;;;7.30;99.90;;;;;;5032889;28;20025;-61
2022/05/29 04:03:15;;;;;;;9.75;1.90;;;7.50;99.90;;;;;;5031425;28;20054;-60
2022/05/29 04:05:41;;;;;;;6.13;1.55;;;7.70;99.90;;;;;;5033121;28;20033;-61
2022/05/29 04:13:41;;;;;;;3.13;1.40;;;8.00;99.90;;;;;;5037308;28;20087;-61
2022/05/29 04:16:07;;;;;;;2.42;1.50;;;8.40;99.90;;;;;;5035377;28;20018;-61
2022/05/29 04:18:32;;;;;;;3.53;1.20;;;8.80;99.90;;;;;;5036084;28;20021;-61
2022/05/29 04:20:58;;;;;;;5.55;1.52;;;9.10;99.90;;;;;;5036925;28;20018;-59
2022/05/29 04:23:24;;;;;;;4.82;1.40;;;9.70;99.90;;;;;;5036541;28;20021;-61
2022/05/29 04:25:50;;;;;;;4.45;1.25;;;10.00;99.90;;;;;;5035564;28;20026;-59
2022/05/29 04:28:16;;;;;;;7.32;1.50;;;10.00;99.90;;;;;;5036515;28;20026;-61
2022/05/29 04:30:42;;;;;;;3.00;1.30;;;10.20;99.90;;;;;;5035198;28;20026;-61
2022/05/29 04:33:08;;;;;;;6.00;1.65;;;10.50;99.90;;;;;;5035599;28;20025;-59
2022/05/29 04:35:41;;;;;;;5.65;1.42;;;10.80;99.90;;;;;;5036233;28;20025;-61
2022/05/29 04:38:07;;;;;;;6.53;1.65;;;11.10;99.90;;;;;;5036440;28;20025;-61
2022/05/29 04:40:35;;;;;;;2.28;1.17;;;11.40;99.90;;;;;;5036797;28;20033;-61
2022/05/29 04:43:01;;;;;;;3.90;1.30;;;11.70;99.90;;;;;;5035528;28;20029;-61
2022/05/29 04:45:27;;;;;;;3.72;1.10;;;12.10;99.90;;;;;;5036558;28;20021;-61
2022/05/29 04:47:53;;;;;;;4.20;1.50;;;12.50;99.90;;;;;;5036268;28;20028;-61
2022/05/29 04:50:19;;;;;;;3.65;1.02;;;13.00;99.90;;;;;;5036488;28;20022;-61
2022/05/29 04:52:45;;;;;;;2.92;1.30;;;13.60;99.90;;;;;;5034902;28;20025;-61
2022/05/29 04:55:11;;;;;;;4.65;1.55;;;13.80;99.90;;;;;;5036103;28;20060;-61
2022/05/29 04:57:36;;;;;;;1.90;1.13;;;14.30;99.90;;;;;;5036194;28;20033;-61
2022/05/29 05:00:04;;;;;;;4.07;1.35;;;14.70;99.90;;;;;;5036659;28;20025;-59
2022/05/29 05:02:30;;;;;;;7.97;1.70;;;14.90;99.90;;;;;;5034762;28;20030;-61
2022/05/29 05:04:55;;;;;;;6.13;1.42;;;15.10;99.90;;;;;;5036075;28;20033;-60
2022/05/29 05:07:21;;;;;;;4.53;1.70;;;15.40;99.90;;;;;;5034893;28;20029;-60
2022/05/29 05:09:48;;;;;;;4.35;1.45;;;15.70;99.90;;;;;;5036248;28;20082;-61
2022/05/29 05:12:14;;;;;;;3.47;1.20;;;15.90;99.90;;;;;;5034951;28;20021;-59
2022/05/29 05:14:40;;;;;;;4.43;1.20;;;16.10;99.90;;;;;;5034960;28;20029;-62
2022/05/29 05:17:05;;;;;;;8.30;3.67;;;16.40;99.90;;;;;;5034910;28;20031;-61
2022/05/29 05:19:31;;;;;;;3.63;1.27;;;16.40;99.90;;;;;;5035810;28;20025;-62
2022/05/29 05:22:00;;;;;;;2.47;1.30;;;16.80;99.90;;;;;;5034773;28;20029;-61
2022/05/29 05:24:27;;;;;;;4.90;1.80;;;17.20;99.90;;;;;;5035548;28;20029;-60
2022/05/29 05:26:53;;;;;;;5.85;1.48;;;17.60;99.90;;;;;;5035992;28;20021;-59
2022/05/29 05:29:19;;;;;;;3.88;1.50;;;17.80;99.90;;;;;;5034650;28;20464;-62
2022/05/29 05:31:44;;;;;;;4.07;1.67;;;18.10;99.90;;;;;;5034701;28;20045;-61
2022/05/29 05:34:10;;;;;;;4.13;1.20;;;18.10;99.90;;;;;;5034491;28;20025;-61
2022/05/29 05:36:36;;;;;;;6.03;1.45;;;18.60;99.90;;;;;;5034520;28;20138;-62
2022/05/29 05:39:02;;;;;;;5.85;1.30;;;19.10;99.90;;;;;;5034558;28;20026;-62
2022/05/29 05:41:28;;;;;;;4.55;1.35;;;19.50;99.90;;;;;;5035727;28;20018;-62
2022/05/29 05:43:54;;;;;;;3.35;1.00;;;19.80;99.90;;;;;;5035598;28;20036;-62
2022/05/29 05:46:19;;;;;;;3.53;1.38;;;20.10;99.90;;;;;;5035693;28;20032;-63
2022/05/29 05:48:45;;;;;;;2.85;1.33;;;20.60;99.90;;;;;;5035609;28;20028;-62
2022/05/29 05:51:12;;;;;;;2.85;1.10;;;21.00;99.90;;;;;;5034332;28;20025;-62
2022/05/29 05:53:40;;;;;;;5.55;1.10;;;21.50;97.60;;;;;;5035120;28;20025;-62
2022/05/29 05:56:08;;;;;;;3.28;1.10;;;21.80;97.50;;;;;;5034596;28;20040;-62
2022/05/29 05:58:34;;;;;;;6.45;1.63;;;22.20;95.80;;;;;;5034282;28;20021;-62
2022/05/29 06:01:04;;;;;;;4.93;1.30;;;22.40;94.30;;;;;;5034038;28;20022;-62
2022/05/29 06:03:30;;;;;;;6.82;1.65;;;22.40;93.70;;;;;;5035696;28;20026;-62
2022/05/29 06:05:55;;;;;;;4.05;1.40;;;22.80;91.80;;;;;;5035006;28;20036;-62
2022/05/29 06:08:21;;;;;;;4.35;1.13;;;22.90;90.40;;;;;;5035486;28;20025;-62
2022/05/29 06:10:46;;;;;;;2.90;1.02;;;23.10;89.30;;;;;;5033985;28;20053;-62
2022/05/29 06:13:12;;;;;;;2.67;1.40;;;23.60;90.00;;;;;;5034002;28;20028;-62
2022/05/29 06:15:38;;;;;;;2.00;1.05;;;23.80;87.70;;;;;;5035149;28;20087;-63
2022/05/29 06:18:04;;;;;;;3.38;1.15;;;24.10;89.00;;;;;;5035053;28;20032;-63
2022/05/29 06:20:30;;;;;;;4.93;1.10;;;24.30;86.00;;;;;;5034967;28;20035;-62
2022/05/29 06:22:55;;;;;;;5.18;1.60;;;24.70;83.60;;;;;;5033697;28;20018;-62
2022/05/29 06:25:21;;;;;;;3.72;1.20;;;24.80;80.40;;;;;;5033556;28;20091;-63
2022/05/29 06:27:47;;;;;;;3.97;1.35;;;25.00;80.10;;;;;;5034540;28;20032;-62
2022/05/29 06:30:15;;;;;;;3.83;1.50;;;25.50;79.20;;;;;;5033542;28;20033;-63
2022/05/29 06:32:41;;;;;;;2.95;1.40;;;25.80;75.30;;;;;;5033253;28;20026;-63
2022/05/29 06:35:09;;;;;;;3.78;1.30;;;26.20;75.40;;;;;;5034656;28;20029;-62
2022/05/29 06:37:39;;;;;;;3.95;1.40;;;26.30;75.70;;;;;;5033412;28;20052;-62
2022/05/29 06:40:06;;;;;;;5.78;1.40;;;26.70;73.30;;;;;;5034602;28;20361;-62
2022/05/29 06:42:32;;;;;;;3.67;1.13;;;27.10;71.30;;;;;;5034502;28;20021;-63
2022/05/29 06:44:59;;;;;;;4.22;1.50;;;27.10;74.70;;;;;;5033255;28;20030;-63
2022/05/29 06:47:25;;;;;;;4.10;1.50;;;27.10;68.10;;;;;;5034619;28;20540;-64
2022/05/29 06:49:51;;;;;;;2.97;1.08;;;27.50;68.20;;;;;;5033578;28;20056;-63
2022/05/29 06:52:18;;;;;;;4.45;1.20;;;27.80;68.90;;;;;;5033415;28;20057;-63
2022/05/29 06:54:44;;;;;;;5.05;1.20;;;27.80;66.00;;;;;;5033369;28;20036;-63
2022/05/29 06:57:36;;;;;;;4.10;1.20;;;28.00;64.60;;;;;;5032933;28;20026;-63
2022/05/29 07:08:13;;;;;;;4.28;1.52;;;28.80;63.70;;;;;;5034376;28;20032;-61
2022/05/29 07:10:39;;;;;;;3.63;1.20;;;29.30;60.60;;;;;;5033154;28;20112;-63
2022/05/29 07:13:05;;;;;;;2.65;1.20;;;29.50;59.50;;;;;;5032733;28;20463;-63
2022/05/29 07:15:31;;;;;;;4.03;1.35;;;30.20;60.00;;;;;;5033999;28;20105;-63
2022/05/29 07:17:56;;;;;;;5.95;1.40;;;30.60;59.90;;;;;;5032800;28;20079;-64
2022/05/29 07:20:22;;;;;;;3.22;1.17;;;31.00;60.00;;;;;;5033687;28;20025;-63
2022/05/29 07:22:47;;;;;;;2.63;1.35;;;31.30;57.30;;;;;;5033673;28;20021;-63
2022/05/29 07:25:13;;;;;;;2.85;1.27;;;31.40;56.40;;;;;;5032988;28;20026;-63
2022/05/29 07:27:39;;;;;;;3.63;1.38;;;31.80;56.60;;;;;;5032514;28;20037;-64
2022/05/29 07:30:06;;;;;;;7.03;1.42;;;32.00;56.00;;;;;;5032378;28;20029;-63
2022/05/29 07:32:32;;;;;;;5.07;1.50;;;31.10;54.30;;;;;;5032455;28;20048;-65
2022/05/29 07:34:58;;;;;;;3.30;1.40;;;31.20;56.00;;;;;;5032497;28;20022;-63
2022/05/29 07:37:26;;;;;;;2.97;1.10;;;32.00;54.70;;;;;;5032392;28;20052;-63
2022/05/29 07:39:54;;;;;;;3.60;1.20;;;32.10;54.40;;;;;;5033754;28;20074;-64
2022/05/29 07:45:06;;;;;;;2.17;1.13;;;33.10;52.80;;;;;;5033821;28;20079;-64
2022/05/29 07:47:38;;;;;;;2.47;1.20;;;33.80;52.40;;;;;;5032221;28;20026;-63
2022/05/29 07:50:05;;;;;;;2.63;1.08;;;33.70;49.10;;;;;;5033517;28;20036;-64
2022/05/29 07:52:30;;;;;;;2.58;1.05;;;33.60;49.90;;;;;;5033379;28;20026;-62
2022/05/29 07:54:56;;;;;;;2.78;1.20;;;34.30;50.50;;;;;;5032186;28;20037;-62
2022/05/29 07:57:21;;;;;;;3.67;1.55;;;33.00;49.10;;;;;;5032203;28;20018;-62
2022/05/29 07:59:47;;;;;;;4.43;1.20;;;33.00;49.70;;;;;;5033581;28;20104;-62
2022/05/29 08:02:13;;;;;;;4.68;1.20;;;33.60;49.60;;;;;;5033631;28;20025;-61
2022/05/29 08:04:40;;;;;;;2.75;0.93;;;34.10;48.40;;;;;;5015651;28;20036;-62
2022/05/29 08:07:06;;;;;;;2.70;1.33;;;34.80;50.30;;;;;;5033275;28;20373;-61
2022/05/29 08:09:32;;;;;;;4.55;1.05;;;34.80;48.20;;;;;;5033245;28;20095;-60
2022/05/29 08:11:58;;;;;;;6.90;1.25;;;33.60;46.90;;;;;;5033086;28;20121;-61
2022/05/29 08:14:23;;;;;;;3.38;0.95;;;33.10;48.60;;;;;;5032131;28;20451;-61
2022/05/29 08:16:49;;;;;;;2.70;1.00;;;33.00;47.00;;;;;;5032229;28;20113;-62
2022/05/29 08:19:14;;;;;;;2.72;1.08;;;33.10;48.90;;;;;;5032249;28;20021;-63
2022/05/29 08:21:41;;;;;;;3.20;0.90;;;33.20;48.80;;;;;;5032229;28;20112;-63
2022/05/29 08:32:19;;;;;;;6.63;1.35;;;32.50;47.70;;;;;;5033076;28;20087;-63
2022/05/29 08:34:45;;;;;;;3.05;0.77;;;30.50;48.60;;;;;;5031674;28;20025;-63
2022/05/29 08:37:11;;;;;;;3.08;1.10;;;30.60;50.50;;;;;;5031767;28;20028;-63
2022/05/29 08:39:37;;;;;;;1.90;0.73;;;32.10;48.70;;;;;;5031812;28;20028;-63
2022/05/29 08:42:03;;;;;;;3.85;1.30;;;32.80;47.40;;;;;;5032096;28;20113;-63
2022/05/29 08:44:42;;;;;;;2.33;1.05;;;33.70;47.40;;;;;;5031606;28;20120;-62
2022/05/29 08:47:08;;;;;;;2.25;1.02;;;34.40;45.30;;;;;;5033016;28;20048;-66
2022/05/29 08:49:39;;;;;;;6.65;1.10;;;35.10;45.50;;;;;;5031754;28;20034;-63
2022/05/29 08:52:43;;;;;;;6.65;1.27;;;34.70;44.50;;;;;;5031863;28;20084;-63
2022/05/29 08:55:24;;;;;;;3.22;0.88;;;33.70;45.10;;;;;;5034224;28;20022;-63
2022/05/29 08:57:58;;;;;;;5.38;1.35;;;33.20;45.80;;;;;;5036967;28;20028;-63
2022/05/29 09:00:46;;;;;;;2.38;0.80;;;34.30;43.20;;;;;;5035399;28;20025;-63
2022/05/29 09:03:30;;;;;;;2.80;0.95;;;34.20;43.80;;;;;;5035653;28;20018;-63
2022/05/29 09:06:05;;;;;;;4.85;0.90;;;34.60;45.30;;;;;;5036786;28;20098;-62
2022/05/29 09:08:37;;;;;;;2.72;1.00;;;34.90;43.00;;;;;;5035130;28;20124;-63
2022/05/29 09:11:10;;;;;;;2.85;0.82;;;34.60;41.80;;;;;;5035176;28;20029;-63
2022/05/29 09:13:44;;;;;;;4.63;0.82;;;33.60;43.30;;;;;;5036277;28;20025;-63
2022/05/29 09:16:29;;;;;;;2.70;1.02;;;33.20;44.50;;;;;;5034957;28;20161;-63
2022/05/29 09:19:16;;;;;;;3.45;0.90;;;34.10;44.10;;;;;;5035576;28;20124;-63
2022/05/29 09:21:58;;;;;;;2.78;1.10;;;35.30;42.20;;;;;;5036428;28;20101;-63
2022/05/29 09:24:43;;;;;;;2.42;0.77;;;35.70;42.20;;;;;;5034801;28;20021;-63
2022/05/29 09:27:10;;;;;;;1.83;0.88;;;34.30;44.00;;;;;;5035142;28;20053;-63
2022/05/29 09:29:37;;;;;;;2.10;0.90;;;32.40;43.10;;;;;;5034944;28;20025;-62
2022/05/29 09:32:14;;;;;;;2.92;0.80;;;30.80;44.60;;;;;;5035954;28;20032;-62
2022/05/29 09:34:42;;;;;;;1.25;0.73;;;29.60;45.90;;;;;;5034550;28;20499;-62
2022/05/29 09:37:23;;;;;;;4.07;1.17;;;28.80;47.00;;;;;;5035894;28;20061;-62
2022/05/29 09:39:55;;;;;;;1.48;0.75;;;28.40;46.70;;;;;;5036111;28;20021;-63
2022/05/29 09:42:23;;;;;;;4.38;1.50;;;28.70;48.90;;;;;;5034567;28;20029;-63
2022/05/29 09:45:12;;;;;;;2.10;0.90;;;29.60;47.10;;;;;;5034731;28;20025;-63
2022/05/29 09:50:38;;;;;;;1.17;0.93;;;31.40;45.80;;;;;;5036339;28;20037;-63
2022/05/29 09:53:12;;;;;;;3.42;0.90;;;32.20;43.40;;;;;;5035403;28;20036;-63
2022/05/29 09:55:42;;;;;;;1.55;0.70;;;31.00;42.70;;;;;;5035471;28;20022;-62
2022/05/29 09:58:13;;;;;;;2.55;0.70;;;29.60;43.20;;;;;;5035878;28;20056;-62
2022/05/29 10:00:54;;;;;;;3.17;1.08;;;28.00;46.60;;;;;;5035129;28;20025;-62
2022/05/29 10:03:50;;;;;;;5.35;1.10;;;28.50;46.50;;;;;;5035428;28;20025;-64
2022/05/29 10:06:27;;;;;;;4.05;1.15;;;28.20;47.20;;;;;;5034140;28;20032;-64
2022/05/29 10:09:01;;;;;;;2.42;0.70;;;27.50;47.40;;;;;;5035326;28;20025;-64
2022/05/29 10:11:30;;;;;;;3.35;0.70;;;27.10;47.90;;;;;;5035301;28;20029;-64
2022/05/29 10:13:56;;;;;;;0.93;0.60;;;27.00;47.20;;;;;;5033813;28;20060;-64
2022/05/29 10:16:37;;;;;;;3.03;0.60;;;27.10;49.20;;;;;;5034226;28;20048;-63
2022/05/29 10:19:08;;;;;;;3.33;1.45;;;25.80;48.00;;;;;;5035060;28;20022;-64
2022/05/29 10:21:50;;;;;;;4.82;2.10;;;25.30;49.50;;;;;;5033802;28;20476;-64
2022/05/29 10:24:37;;;;;;;4.22;0.70;;;25.30;51.40;;;;;;5035313;28;20079;-64
2022/05/29 10:27:08;;;;;;;1.58;0.80;;;26.00;50.40;;;;;;5033766;28;20089;-64
2022/05/29 10:29:37;;;;;;;3.00;0.88;;;27.10;49.00;;;;;;5033636;28;20026;-64
2022/05/29 10:32:07;;;;;;;0.90;0.77;;;27.70;47.80;;;;;;5033530;28;20395;-64
2022/05/29 10:34:36;;;;;;;1.55;0.73;;;27.90;48.30;;;;;;5034774;28;20049;-65
2022/05/29 10:37:25;;;;;;;3.97;2.17;;;28.40;48.10;;;;;;5033230;28;20029;-64
2022/05/29 10:39:50;;;;;;;1.88;0.90;;;28.10;49.70;;;;;;5034251;28;20029;-64
2022/05/29 10:42:44;;;;;;;2.70;0.60;;;27.60;47.90;;;;;;5033450;28;20116;-64
2022/05/29 10:45:25;;;;;;;2.78;0.98;;;27.20;48.10;;;;;;5033656;28;20040;-64
2022/05/29 10:48:03;;;;;;;1.67;0.80;;;27.00;49.60;;;;;;5034232;28;20029;-63
2022/05/29 10:50:59;;;;;;;1.92;0.80;;;26.40;49.00;;;;;;5034772;28;20075;-63
2022/05/29 10:53:53;;;;;;;1.88;0.90;;;25.90;50.50;;;;;;4999005;28;20427;-64
2022/05/29 10:56:28;;;;;;;3.00;0.80;;;25.60;49.50;;;;;;5033179;28;20025;-64
2022/05/29 10:59:06;;;;;;;3.38;1.13;;;25.70;50.10;;;;;;5034863;28;20013;-63
2022/05/29 11:04:40;;;;;;;1.25;0.70;;;25.50;51.50;;;;;;5034305;28;20039;-64
2022/05/29 11:07:17;;;;;;;1.88;0.90;;;25.40;52.60;;;;;;5033715;28;20051;-64
2022/05/29 11:10:03;;;;;;;2.72;0.80;;;25.50;50.50;;;;;;5032947;28;20026;-63
2022/05/29 11:12:46;;;;;;;2.88;1.05;;;25.40;51.70;;;;;;5032861;28;20116;-64
2022/05/29 11:15:39;;;;;;;2.58;1.00;;;25.30;50.70;;;;;;5032606;28;20060;-63
2022/05/29 11:18:36;;;;;;;4.03;0.98;;;25.60;51.90;;;;;;5032422;28;20028;-64
2022/05/29 11:21:31;;;;;;;1.65;0.68;;;25.00;51.40;;;;;;5034185;28;20079;-64
2022/05/29 11:24:03;;;;;;;1.67;0.63;;;25.10;51.20;;;;;;5010722;28;20038;-64
2022/05/29 11:26:38;;;;;;;2.33;0.90;;;25.00;51.40;;;;;;5034128;28;20021;-64
2022/05/29 11:29:48;;;;;;;2.85;0.88;;;24.30;52.70;;;;;;5032521;28;20021;-64
2022/05/29 11:32:40;;;;;;;1.20;0.60;;;24.40;53.10;;;;;;5002351;28;20034;-64
2022/05/29 11:35:11;;;;;;;;;;;24.50;53.00;;;;;;5034048;28;20025;-64
2022/05/29 11:38:12;;;;;;;3.63;1.00;;;24.60;53.70;;;;;;5032378;28;19905;-64
2022/05/29 11:40:44;;;;;;;1.63;0.95;;;24.70;53.60;;;;;;4990902;28;20032;-64
2022/05/29 11:43:25;;;;;;;1.15;0.80;;;24.80;52.00;;;;;;5033838;28;20644;-64
2022/05/29 11:52:02;;;;;;;4.47;1.17;;;24.10;54.30;;;;;;5035474;28;20101;-64
2022/05/29 11:54:37;;;;;;;1.80;1.00;;;24.40;53.90;;;;;;5032890;28;20025;-64
2022/05/29 11:57:12;;;;;;;4.53;0.90;;;24.20;53.90;;;;;;5032147;28;20018;-64
2022/05/29 11:59:52;;;;;;;4.55;0.98;;;24.20;53.40;;;;;;5033055;28;20021;-64
2022/05/29 12:02:29;;;;;;;3.53;1.10;;;24.00;54.80;;;;;;5033745;28;20024;-64
2022/05/29 12:05:25;;;;;;;2.05;0.80;;;23.80;55.40;;;;;;5033593;28;20038;-64
2022/05/29 12:08:03;;;;;;;3.72;0.80;;;23.70;55.20;;;;;;5032215;28;20030;-63
2022/05/29 12:10:36;;;;;;;3.67;1.05;;;23.90;56.40;;;;;;5033552;28;20083;-65
2022/05/29 12:13:09;;;;;;;2.67;1.00;;;23.90;54.70;;;;;;5033273;28;20079;-64
2022/05/29 12:15:36;;;;;;;1.73;0.80;;;24.00;55.70;;;;;;5031913;28;20029;-64
2022/05/29 12:18:06;;;;;;;1.20;0.90;;;23.90;55.20;;;;;;5033115;28;20476;-64
2022/05/29 12:20:53;;;;;;;3.17;1.05;;;23.90;55.80;;;;;;5033525;28;20030;-63
2022/05/29 12:23:25;;;;;;;2.20;1.00;;;23.50;56.40;;;;;;5032189;28;20025;-64
2022/05/29 12:26:00;;;;;;;2.13;0.93;;;23.40;55.70;;;;;;5031788;28;20025;-64
2022/05/29 12:28:55;;;;;;;3.47;1.08;;;23.40;54.80;;;;;;5033154;28;20018;-63
2022/05/29 12:31:38;;;;;;;2.15;1.40;;;22.70;54.60;;;;;;5036930;28;20399;-63
2022/05/29 12:34:05;;;;;;;4.38;1.00;;;22.70;57.40;;;;;;5035752;28;20100;-64
2022/05/29 12:36:58;;;;;;;1.70;1.13;;;22.70;56.50;;;;;;5036960;28;20036;-64
2022/05/29 12:39:54;;;;;;;3.42;1.17;;;22.60;57.60;;;;;;5035833;28;20391;-62
2022/05/29 12:42:25;;;;;;;3.40;1.20;;;22.70;56.70;;;;;;5036989;28;20021;-61
2022/05/29 12:45:05;;;;;;;2.00;0.80;;;22.70;58.00;;;;;;5035544;28;20063;-63
2022/05/29 12:47:43;;;;;;;2.30;0.90;;;22.70;57.60;;;;;;5037043;28;20029;-64
2022/05/29 12:50:36;;;;;;;2.83;1.42;;;23.00;57.50;;;;;;5035453;28;20090;-64
2022/05/29 12:53:29;;;;;;;2.15;1.50;;;23.20;56.70;;;;;;5036571;28;20104;-64
2022/05/29 12:56:19;;;;;;;4.63;1.40;;;23.40;58.30;;;;;;5036473;28;20107;-63
2022/05/29 12:58:48;;;;;;;2.25;1.15;;;23.20;58.30;;;;;;5036209;28;20022;-63
2022/05/29 13:01:38;;;;;;;2.25;1.23;;;23.20;58.30;;;;;;5035291;28;20151;-63
2022/05/29 13:04:13;;;;;;;1.83;1.40;;;23.10;58.70;;;;;;5036275;28;20435;-64
2022/05/29 13:06:47;;;;;;;3.25;1.40;;;23.20;59.90;;;;;;5035093;28;20053;-63
2022/05/29 13:09:50;;;;;;;3.67;1.38;;;23.10;58.70;;;;;;5034240;28;20017;-63
2022/05/29 13:12:26;;;;;;;2.47;1.38;;;23.00;59.50;;;;;;5033915;28;20021;-64
2022/05/29 13:14:56;;;;;;;2.55;1.40;;;23.00;60.30;;;;;;5033604;28;20032;-64
2022/05/29 13:17:34;;;;;;;2.35;1.10;;;22.90;59.70;;;;;;5035138;28;20014;-63
2022/05/29 13:20:01;;;;;;;1.73;1.00;;;23.10;59.40;;;;;;5034649;28;20026;-63
2022/05/29 13:22:51;;;;;;;2.10;0.93;;;23.10;57.30;;;;;;5033743;28;20026;-63
2022/05/29 13:25:23;;;;;;;1.00;0.80;;;22.90;58.40;;;;;;5034426;28;20029;-62
2022/05/29 13:27:51;;;;;;;0.93;0.90;;;22.30;59.70;;;;;;5034276;28;20096;-63
2022/05/29 13:31:04;;;;;;;1.40;0.88;;;22.00;60.70;;;;;;5034834;28;20032;-63
2022/05/29 13:33:29;;;;;;;1.55;0.80;;;21.50;62.60;;;;;;5008180;28;20048;-62
2022/05/29 13:35:56;;;;;;;2.88;0.90;;;21.50;62.60;;;;;;5034644;28;20027;-62
2022/05/29 13:38:44;;;;;;;2.38;1.10;;;21.60;64.30;;;;;;5034202;28;20028;-63
2022/05/29 13:41:42;;;;;;;1.48;0.88;;;21.50;64.40;;;;;;5033190;28;20088;-63
2022/05/29 13:44:27;;;;;;;1.40;1.27;;;20.90;65.00;;;;;;5034853;28;20021;-63
2022/05/29 13:47:22;;;;;;;2.08;1.15;;;20.80;66.90;;;;;;5034592;28;20026;-62
2022/05/29 13:50:01;;;;;;;5.93;1.27;;;20.70;67.90;;;;;;5034653;28;20029;-63
2022/05/29 13:52:54;;;;;;;1.30;0.95;;;20.80;67.80;;;;;;5033220;28;20061;-63
2022/05/29 13:55:22;;;;;;;1.65;1.20;;;20.70;68.60;;;;;;5034694;28;20141;-63
2022/05/29 14:03:58;;;;;;;2.60;1.20;;;19.70;70.40;;;;;;5034819;28;20151;-63
2022/05/29 14:06:40;;;;;;;1.58;1.13;;;19.70;73.30;;;;;;5070932;28;20376;-62
2022/05/29 14:09:26;;;;;;;1.30;0.88;;;20.10;71.00;;;;;;5070734;28;20052;-62